sensor_id;sensor_type;location;lat;lon;timestamp;P1;durP1;ratioP1;P2;durP2;ratioP2
15258;SDS011;34462;51.368;12.364;2023-11-21T00:01:22;3.47;;;3.17;;
15258;SDS011;34462;51.368;12.364;2023-11-21T00:03:51;3.90;;;2.90;;
15258;SDS011;34462;51.368;12.364;2023-11-21T00:06:21;4.10;;;3.20;;
15258;SDS011;34462;51.368;12.364;2023-11-21T00:08:49;3.80;;;3.10;;
15258;SDS011;34462;51.368;12.364;2023-11-21T00:11:17;3.40;;;3.10;;
15258;SDS011;34462;51.368;12.364;2023-11-21T00:13:45;3.87;;;3.50;;
15258;SDS011;34462;51.368;12.364;2023-11-21T00:16:16;3.77;;;3.30;;
15258;SDS011;34462;51.368;12.364;2023-11-21T00:18:44;6.07;;;4.00;;
15258;SDS011;34462;51.368;12.364;2023-11-21T00:21:15;4.80;;;4.23;;
15258;SDS011;34462;51.368;12.364;2023-11-21T00:23:43;4.53;;;3.77;;
15258;SDS011;34462;51.368;12.364;2023-11-21T00:26:11;5.97;;;4.90;;
15258;SDS011;34462;51.368;12.364;2023-11-21T00:28:40;5.57;;;4.73;;
15258;SDS011;34462;51.368;12.364;2023-11-21T00:31:08;6.37;;;4.63;;
15258;SDS011;34462;51.368;12.364;2023-11-21T00:33:36;6.07;;;5.47;;
15258;SDS011;34462;51.368;12.364;2023-11-21T00:36:05;8.50;;;6.97;;
15258;SDS011;34462;51.368;12.364;2023-11-21T00:38:37;9.10;;;8.20;;
15258;SDS011;34462;51.368;12.364;2023-11-21T00:41:06;8.83;;;7.43;;
15258;SDS011;34462;51.368;12.364;2023-11-21T00:43:34;7.80;;;6.77;;
15258;SDS011;34462;51.368;12.364;2023-11-21T00:46:03;6.83;;;5.87;;
15258;SDS011;34462;51.368;12.364;2023-11-21T00:48:33;6.63;;;5.30;;
15258;SDS011;34462;51.368;12.364;2023-11-21T00:51:01;5.37;;;4.87;;
15258;SDS011;34462;51.368;12.364;2023-11-21T00:53:30;5.60;;;5.00;;
15258;SDS011;34462;51.368;12.364;2023-11-21T00:55:59;6.13;;;4.73;;
15258;SDS011;34462;51.368;12.364;2023-11-21T00:58:28;6.10;;;5.50;;
15258;SDS011;34462;51.368;12.364;2023-11-21T01:00:57;6.13;;;4.90;;
15258;SDS011;34462;51.368;12.364;2023-11-21T01:03:25;5.47;;;4.93;;
15258;SDS011;34462;51.368;12.364;2023-11-21T01:05:54;5.00;;;4.50;;
15258;SDS011;34462;51.368;12.364;2023-11-21T01:08:22;5.70;;;4.40;;
15258;SDS011;34462;51.368;12.364;2023-11-21T01:10:50;4.57;;;4.13;;
15258;SDS011;34462;51.368;12.364;2023-11-21T01:13:20;5.30;;;4.80;;
15258;SDS011;34462;51.368;12.364;2023-11-21T01:15:48;8.07;;;5.50;;
15258;SDS011;34462;51.368;12.364;2023-11-21T01:18:17;6.57;;;4.50;;
15258;SDS011;34462;51.368;12.364;2023-11-21T01:20:47;5.03;;;4.50;;
15258;SDS011;34462;51.368;12.364;2023-11-21T01:23:15;6.17;;;5.30;;
15258;SDS011;34462;51.368;12.364;2023-11-21T01:25:43;7.93;;;5.20;;
15258;SDS011;34462;51.368;12.364;2023-11-21T01:28:11;7.47;;;5.50;;
15258;SDS011;34462;51.368;12.364;2023-11-21T01:30:41;6.40;;;5.07;;
15258;SDS011;34462;51.368;12.364;2023-11-21T01:33:11;5.47;;;4.60;;
15258;SDS011;34462;51.368;12.364;2023-11-21T01:35:42;6.23;;;5.60;;
15258;SDS011;34462;51.368;12.364;2023-11-21T01:38:12;7.17;;;5.10;;
15258;SDS011;34462;51.368;12.364;2023-11-21T01:40:41;7.13;;;4.63;;
15258;SDS011;34462;51.368;12.364;2023-11-21T01:43:10;6.93;;;4.70;;
15258;SDS011;34462;51.368;12.364;2023-11-21T01:45:38;4.97;;;4.30;;
15258;SDS011;34462;51.368;12.364;2023-11-21T01:48:07;5.27;;;3.87;;
15258;SDS011;34462;51.368;12.364;2023-11-21T01:50:36;8.20;;;3.87;;
15258;SDS011;34462;51.368;12.364;2023-11-21T01:53:04;4.50;;;3.80;;
15258;SDS011;34462;51.368;12.364;2023-11-21T01:55:34;5.47;;;4.20;;
15258;SDS011;34462;51.368;12.364;2023-11-21T01:58:02;6.03;;;3.80;;
15258;SDS011;34462;51.368;12.364;2023-11-21T02:00:31;7.17;;;4.70;;
15258;SDS011;34462;51.368;12.364;2023-11-21T02:02:59;4.63;;;3.80;;
15258;SDS011;34462;51.368;12.364;2023-11-21T02:05:30;5.30;;;3.90;;
15258;SDS011;34462;51.368;12.364;2023-11-21T02:07:58;3.93;;;3.53;;
15258;SDS011;34462;51.368;12.364;2023-11-21T02:10:27;4.80;;;3.40;;
15258;SDS011;34462;51.368;12.364;2023-11-21T02:12:57;5.60;;;3.70;;
15258;SDS011;34462;51.368;12.364;2023-11-21T02:15:27;4.40;;;3.90;;
15258;SDS011;34462;51.368;12.364;2023-11-21T02:17:56;6.10;;;4.03;;
15258;SDS011;34462;51.368;12.364;2023-11-21T02:20:25;4.70;;;4.00;;
15258;SDS011;34462;51.368;12.364;2023-11-21T02:22:57;5.13;;;4.03;;
15258;SDS011;34462;51.368;12.364;2023-11-21T02:25:26;5.60;;;3.70;;
15258;SDS011;34462;51.368;12.364;2023-11-21T02:27:56;7.50;;;4.40;;
15258;SDS011;34462;51.368;12.364;2023-11-21T02:30:28;5.40;;;4.30;;
15258;SDS011;34462;51.368;12.364;2023-11-21T02:32:58;6.90;;;4.03;;
15258;SDS011;34462;51.368;12.364;2023-11-21T02:35:27;5.93;;;4.10;;
15258;SDS011;34462;51.368;12.364;2023-11-21T02:37:58;5.60;;;4.17;;
15258;SDS011;34462;51.368;12.364;2023-11-21T02:40:27;4.73;;;3.53;;
15258;SDS011;34462;51.368;12.364;2023-11-21T02:42:56;4.40;;;3.80;;
15258;SDS011;34462;51.368;12.364;2023-11-21T02:45:25;6.10;;;3.50;;
15258;SDS011;34462;51.368;12.364;2023-11-21T02:47:54;7.13;;;4.00;;
15258;SDS011;34462;51.368;12.364;2023-11-21T02:50:23;3.90;;;3.40;;
15258;SDS011;34462;51.368;12.364;2023-11-21T02:52:51;4.70;;;3.77;;
15258;SDS011;34462;51.368;12.364;2023-11-21T02:55:21;6.27;;;3.70;;
15258;SDS011;34462;51.368;12.364;2023-11-21T02:57:51;4.80;;;3.83;;
15258;SDS011;34462;51.368;12.364;2023-11-21T03:00:19;6.13;;;3.60;;
15258;SDS011;34462;51.368;12.364;2023-11-21T03:02:50;5.93;;;4.10;;
15258;SDS011;34462;51.368;12.364;2023-11-21T03:05:19;4.90;;;3.80;;
15258;SDS011;34462;51.368;12.364;2023-11-21T03:07:48;3.90;;;3.50;;
15258;SDS011;34462;51.368;12.364;2023-11-21T03:10:16;4.37;;;3.97;;
15258;SDS011;34462;51.368;12.364;2023-11-21T03:12:47;6.53;;;4.37;;
15258;SDS011;34462;51.368;12.364;2023-11-21T03:15:15;6.57;;;4.30;;
15258;SDS011;34462;51.368;12.364;2023-11-21T03:17:43;6.40;;;3.80;;
15258;SDS011;34462;51.368;12.364;2023-11-21T03:20:11;7.77;;;4.10;;
15258;SDS011;34462;51.368;12.364;2023-11-21T03:22:40;6.70;;;4.00;;
15258;SDS011;34462;51.368;12.364;2023-11-21T03:25:08;5.37;;;3.93;;
15258;SDS011;34462;51.368;12.364;2023-11-21T03:27:38;5.20;;;4.07;;
15258;SDS011;34462;51.368;12.364;2023-11-21T03:30:08;6.70;;;4.20;;
15258;SDS011;34462;51.368;12.364;2023-11-21T03:32:38;5.27;;;4.07;;
15258;SDS011;34462;51.368;12.364;2023-11-21T03:35:06;4.90;;;3.53;;
15258;SDS011;34462;51.368;12.364;2023-11-21T03:37:35;4.60;;;3.40;;
15258;SDS011;34462;51.368;12.364;2023-11-21T03:40:07;5.47;;;3.73;;
15258;SDS011;34462;51.368;12.364;2023-11-21T03:42:36;6.83;;;3.60;;
15258;SDS011;34462;51.368;12.364;2023-11-21T03:45:05;5.27;;;3.53;;
15258;SDS011;34462;51.368;12.364;2023-11-21T03:47:36;5.13;;;3.70;;
15258;SDS011;34462;51.368;12.364;2023-11-21T03:50:05;6.43;;;3.50;;
15258;SDS011;34462;51.368;12.364;2023-11-21T03:52:35;4.73;;;3.03;;
15258;SDS011;34462;51.368;12.364;2023-11-21T03:55:03;5.43;;;3.57;;
15258;SDS011;34462;51.368;12.364;2023-11-21T03:57:32;6.53;;;3.43;;
15258;SDS011;34462;51.368;12.364;2023-11-21T04:00:00;5.43;;;3.80;;
15258;SDS011;34462;51.368;12.364;2023-11-21T04:02:31;5.90;;;3.50;;
15258;SDS011;34462;51.368;12.364;2023-11-21T04:04:59;4.13;;;3.60;;
15258;SDS011;34462;51.368;12.364;2023-11-21T04:07:28;5.97;;;3.57;;
15258;SDS011;34462;51.368;12.364;2023-11-21T04:09:56;5.87;;;3.43;;
15258;SDS011;34462;51.368;12.364;2023-11-21T04:12:24;4.10;;;3.03;;
15258;SDS011;34462;51.368;12.364;2023-11-21T04:14:52;6.37;;;3.03;;
15258;SDS011;34462;51.368;12.364;2023-11-21T04:17:21;7.90;;;3.70;;
15258;SDS011;34462;51.368;12.364;2023-11-21T04:19:51;4.97;;;3.07;;
15258;SDS011;34462;51.368;12.364;2023-11-21T04:22:19;4.70;;;3.40;;
15258;SDS011;34462;51.368;12.364;2023-11-21T04:24:47;5.07;;;3.57;;
15258;SDS011;34462;51.368;12.364;2023-11-21T04:27:16;6.00;;;3.10;;
15258;SDS011;34462;51.368;12.364;2023-11-21T04:29:45;6.10;;;3.10;;
15258;SDS011;34462;51.368;12.364;2023-11-21T04:32:13;4.63;;;3.17;;
15258;SDS011;34462;51.368;12.364;2023-11-21T04:34:41;6.63;;;3.13;;
15258;SDS011;34462;51.368;12.364;2023-11-21T04:37:11;4.73;;;3.30;;
15258;SDS011;34462;51.368;12.364;2023-11-21T04:39:39;7.73;;;2.67;;
15258;SDS011;34462;51.368;12.364;2023-11-21T04:42:07;3.70;;;3.00;;
15258;SDS011;34462;51.368;12.364;2023-11-21T04:44:35;6.27;;;3.50;;
15258;SDS011;34462;51.368;12.364;2023-11-21T04:47:04;5.53;;;3.40;;
15258;SDS011;34462;51.368;12.364;2023-11-21T04:49:32;8.47;;;3.57;;
15258;SDS011;34462;51.368;12.364;2023-11-21T04:52:01;4.97;;;2.90;;
15258;SDS011;34462;51.368;12.364;2023-11-21T04:54:32;8.47;;;3.47;;
15258;SDS011;34462;51.368;12.364;2023-11-21T04:57:00;6.83;;;3.10;;
15258;SDS011;34462;51.368;12.364;2023-11-21T04:59:30;6.30;;;3.10;;
15258;SDS011;34462;51.368;12.364;2023-11-21T05:01:58;5.47;;;3.10;;
15258;SDS011;34462;51.368;12.364;2023-11-21T05:04:27;5.30;;;3.50;;
15258;SDS011;34462;51.368;12.364;2023-11-21T05:06:56;6.20;;;3.23;;
15258;SDS011;34462;51.368;12.364;2023-11-21T05:09:24;4.43;;;2.80;;
15258;SDS011;34462;51.368;12.364;2023-11-21T05:11:53;5.20;;;3.10;;
15258;SDS011;34462;51.368;12.364;2023-11-21T05:14:22;4.77;;;3.33;;
15258;SDS011;34462;51.368;12.364;2023-11-21T05:16:50;8.17;;;3.33;;
15258;SDS011;34462;51.368;12.364;2023-11-21T05:19:19;5.33;;;3.50;;
15258;SDS011;34462;51.368;12.364;2023-11-21T05:21:48;4.00;;;3.60;;
15258;SDS011;34462;51.368;12.364;2023-11-21T05:24:16;7.57;;;4.40;;
15258;SDS011;34462;51.368;12.364;2023-11-21T05:26:44;6.17;;;3.97;;
15258;SDS011;34462;51.368;12.364;2023-11-21T05:29:13;6.40;;;4.20;;
15258;SDS011;34462;51.368;12.364;2023-11-21T05:31:41;5.90;;;3.53;;
15258;SDS011;34462;51.368;12.364;2023-11-21T05:34:10;6.53;;;3.43;;
15258;SDS011;34462;51.368;12.364;2023-11-21T05:36:42;7.13;;;3.20;;
15258;SDS011;34462;51.368;12.364;2023-11-21T05:39:11;9.80;;;4.10;;
15258;SDS011;34462;51.368;12.364;2023-11-21T05:41:43;6.57;;;3.63;;
15258;SDS011;34462;51.368;12.364;2023-11-21T05:44:16;7.20;;;4.30;;
15258;SDS011;34462;51.368;12.364;2023-11-21T05:46:44;6.77;;;4.07;;
15258;SDS011;34462;51.368;12.364;2023-11-21T05:49:13;8.30;;;4.17;;
15258;SDS011;34462;51.368;12.364;2023-11-21T05:51:41;6.53;;;4.60;;
15258;SDS011;34462;51.368;12.364;2023-11-21T05:54:11;7.83;;;4.80;;
15258;SDS011;34462;51.368;12.364;2023-11-21T05:56:39;5.90;;;4.27;;
15258;SDS011;34462;51.368;12.364;2023-11-21T05:59:07;7.73;;;4.23;;
15258;SDS011;34462;51.368;12.364;2023-11-21T06:01:37;6.40;;;4.27;;
15258;SDS011;34462;51.368;12.364;2023-11-21T06:04:06;6.87;;;4.60;;
15258;SDS011;34462;51.368;12.364;2023-11-21T06:06:34;7.33;;;4.83;;
15258;SDS011;34462;51.368;12.364;2023-11-21T06:09:03;7.07;;;4.17;;
15258;SDS011;34462;51.368;12.364;2023-11-21T06:11:32;8.50;;;4.53;;
15258;SDS011;34462;51.368;12.364;2023-11-21T06:14:00;8.27;;;4.60;;
15258;SDS011;34462;51.368;12.364;2023-11-21T06:16:34;9.63;;;4.93;;
15258;SDS011;34462;51.368;12.364;2023-11-21T06:19:04;9.33;;;5.17;;
15258;SDS011;34462;51.368;12.364;2023-11-21T06:21:37;7.20;;;5.00;;
15258;SDS011;34462;51.368;12.364;2023-11-21T06:24:06;9.40;;;5.80;;
15258;SDS011;34462;51.368;12.364;2023-11-21T06:26:34;9.03;;;5.03;;
15258;SDS011;34462;51.368;12.364;2023-11-21T06:29:02;9.07;;;5.23;;
15258;SDS011;34462;51.368;12.364;2023-11-21T06:31:31;8.17;;;5.00;;
15258;SDS011;34462;51.368;12.364;2023-11-21T06:33:59;9.57;;;5.90;;
15258;SDS011;34462;51.368;12.364;2023-11-21T06:36:29;10.10;;;6.67;;
15258;SDS011;34462;51.368;12.364;2023-11-21T06:38:57;12.60;;;6.50;;
15258;SDS011;34462;51.368;12.364;2023-11-21T06:41:25;11.07;;;6.60;;
15258;SDS011;34462;51.368;12.364;2023-11-21T06:43:53;9.53;;;5.83;;
15258;SDS011;34462;51.368;12.364;2023-11-21T06:46:21;17.53;;;7.33;;
15258;SDS011;34462;51.368;12.364;2023-11-21T06:48:50;13.67;;;6.97;;
15258;SDS011;34462;51.368;12.364;2023-11-21T06:51:18;10.30;;;6.90;;
15258;SDS011;34462;51.368;12.364;2023-11-21T06:53:48;12.40;;;7.77;;
15258;SDS011;34462;51.368;12.364;2023-11-21T06:56:16;12.80;;;7.27;;
15258;SDS011;34462;51.368;12.364;2023-11-21T06:58:45;12.70;;;7.73;;
15258;SDS011;34462;51.368;12.364;2023-11-21T07:01:13;13.87;;;7.37;;
15258;SDS011;34462;51.368;12.364;2023-11-21T07:03:42;12.00;;;7.67;;
15258;SDS011;34462;51.368;12.364;2023-11-21T07:06:10;12.67;;;7.60;;
15258;SDS011;34462;51.368;12.364;2023-11-21T07:08:40;10.83;;;7.23;;
15258;SDS011;34462;51.368;12.364;2023-11-21T07:11:10;13.27;;;8.17;;
15258;SDS011;34462;51.368;12.364;2023-11-21T07:13:38;13.67;;;7.90;;
15258;SDS011;34462;51.368;12.364;2023-11-21T07:16:06;12.30;;;8.13;;
15258;SDS011;34462;51.368;12.364;2023-11-21T07:18:36;10.53;;;7.70;;
15258;SDS011;34462;51.368;12.364;2023-11-21T07:21:04;13.30;;;8.87;;
15258;SDS011;34462;51.368;12.364;2023-11-21T07:23:34;13.97;;;8.93;;
15258;SDS011;34462;51.368;12.364;2023-11-21T07:26:02;20.93;;;11.77;;
15258;SDS011;34462;51.368;12.364;2023-11-21T07:28:36;21.03;;;13.63;;
15258;SDS011;34462;51.368;12.364;2023-11-21T07:31:05;19.13;;;12.83;;
15258;SDS011;34462;51.368;12.364;2023-11-21T07:33:33;32.33;;;15.00;;
15258;SDS011;34462;51.368;12.364;2023-11-21T07:36:01;25.33;;;15.43;;
15258;SDS011;34462;51.368;12.364;2023-11-21T07:38:29;23.37;;;14.73;;
15258;SDS011;34462;51.368;12.364;2023-11-21T07:40:59;24.63;;;15.23;;
15258;SDS011;34462;51.368;12.364;2023-11-21T07:43:28;23.17;;;14.30;;
15258;SDS011;34462;51.368;12.364;2023-11-21T07:46:02;19.50;;;13.27;;
15258;SDS011;34462;51.368;12.364;2023-11-21T07:48:31;20.53;;;12.40;;
15258;SDS011;34462;51.368;12.364;2023-11-21T07:51:01;21.47;;;13.03;;
15258;SDS011;34462;51.368;12.364;2023-11-21T07:53:30;17.03;;;12.23;;
15258;SDS011;34462;51.368;12.364;2023-11-21T07:56:02;17.53;;;11.17;;
15258;SDS011;34462;51.368;12.364;2023-11-21T07:58:31;14.83;;;11.53;;
15258;SDS011;34462;51.368;12.364;2023-11-21T08:01:00;16.23;;;11.80;;
15258;SDS011;34462;51.368;12.364;2023-11-21T08:03:30;16.70;;;12.10;;
15258;SDS011;34462;51.368;12.364;2023-11-21T08:05:58;16.30;;;12.00;;
15258;SDS011;34462;51.368;12.364;2023-11-21T08:08:29;15.30;;;11.77;;
15258;SDS011;34462;51.368;12.364;2023-11-21T08:10:58;16.57;;;11.63;;
15258;SDS011;34462;51.368;12.364;2023-11-21T08:13:29;13.67;;;10.10;;
15258;SDS011;34462;51.368;12.364;2023-11-21T08:15:57;12.40;;;9.37;;
15258;SDS011;34462;51.368;12.364;2023-11-21T08:18:30;11.13;;;9.07;;
15258;SDS011;34462;51.368;12.364;2023-11-21T08:20:59;12.30;;;9.07;;
15258;SDS011;34462;51.368;12.364;2023-11-21T08:23:27;11.97;;;8.43;;
15258;SDS011;34462;51.368;12.364;2023-11-21T08:25:55;12.97;;;8.83;;
15258;SDS011;34462;51.368;12.364;2023-11-21T08:28:24;11.20;;;8.13;;
15258;SDS011;34462;51.368;12.364;2023-11-21T08:30:52;11.00;;;8.57;;
15258;SDS011;34462;51.368;12.364;2023-11-21T08:33:21;11.30;;;7.93;;
15258;SDS011;34462;51.368;12.364;2023-11-21T08:35:51;10.33;;;7.73;;
15258;SDS011;34462;51.368;12.364;2023-11-21T08:38:19;10.20;;;7.27;;
15258;SDS011;34462;51.368;12.364;2023-11-21T08:40:47;8.83;;;6.40;;
15258;SDS011;34462;51.368;12.364;2023-11-21T08:43:15;8.53;;;7.17;;
15258;SDS011;34462;51.368;12.364;2023-11-21T08:45:46;7.57;;;6.23;;
15258;SDS011;34462;51.368;12.364;2023-11-21T08:48:14;8.30;;;6.40;;
15258;SDS011;34462;51.368;12.364;2023-11-21T08:50:42;7.17;;;6.30;;
15258;SDS011;34462;51.368;12.364;2023-11-21T08:53:12;7.73;;;6.37;;
15258;SDS011;34462;51.368;12.364;2023-11-21T08:55:40;9.67;;;6.70;;
15258;SDS011;34462;51.368;12.364;2023-11-21T08:58:10;8.17;;;6.33;;
15258;SDS011;34462;51.368;12.364;2023-11-21T09:00:39;7.87;;;6.70;;
15258;SDS011;34462;51.368;12.364;2023-11-21T09:03:07;8.03;;;6.60;;
15258;SDS011;34462;51.368;12.364;2023-11-21T09:05:37;8.33;;;6.83;;
15258;SDS011;34462;51.368;12.364;2023-11-21T09:08:06;9.20;;;7.47;;
15258;SDS011;34462;51.368;12.364;2023-11-21T09:10:35;8.73;;;7.43;;
15258;SDS011;34462;51.368;12.364;2023-11-21T09:13:03;8.97;;;7.10;;
15258;SDS011;34462;51.368;12.364;2023-11-21T09:15:32;8.07;;;6.73;;
15258;SDS011;34462;51.368;12.364;2023-11-21T09:18:00;9.23;;;7.07;;
15258;SDS011;34462;51.368;12.364;2023-11-21T09:20:28;8.57;;;7.13;;
15258;SDS011;34462;51.368;12.364;2023-11-21T09:22:56;10.57;;;7.30;;
15258;SDS011;34462;51.368;12.364;2023-11-21T09:25:25;10.57;;;7.83;;
15258;SDS011;34462;51.368;12.364;2023-11-21T09:27:56;10.53;;;7.27;;
15258;SDS011;34462;51.368;12.364;2023-11-21T09:30:24;9.37;;;7.53;;
15258;SDS011;34462;51.368;12.364;2023-11-21T09:32:52;9.93;;;7.77;;
15258;SDS011;34462;51.368;12.364;2023-11-21T09:35:21;10.57;;;7.53;;
15258;SDS011;34462;51.368;12.364;2023-11-21T09:37:50;9.83;;;7.93;;
15258;SDS011;34462;51.368;12.364;2023-11-21T09:40:20;10.40;;;7.17;;
15258;SDS011;34462;51.368;12.364;2023-11-21T09:42:52;9.03;;;7.37;;
15258;SDS011;34462;51.368;12.364;2023-11-21T09:45:25;10.60;;;7.87;;
15258;SDS011;34462;51.368;12.364;2023-11-21T09:47:55;8.40;;;7.00;;
15258;SDS011;34462;51.368;12.364;2023-11-21T09:50:24;7.77;;;6.43;;
15258;SDS011;34462;51.368;12.364;2023-11-21T09:52:55;6.40;;;5.43;;
15258;SDS011;34462;51.368;12.364;2023-11-21T09:55:31;5.30;;;4.43;;
15258;SDS011;34462;51.368;12.364;2023-11-21T09:58:04;5.57;;;4.20;;
15258;SDS011;34462;51.368;12.364;2023-11-21T10:00:34;5.70;;;4.60;;
15258;SDS011;34462;51.368;12.364;2023-11-21T10:03:02;5.00;;;3.90;;
15258;SDS011;34462;51.368;12.364;2023-11-21T10:05:31;5.17;;;4.10;;
15258;SDS011;34462;51.368;12.364;2023-11-21T10:08:00;5.00;;;4.50;;
15258;SDS011;34462;51.368;12.364;2023-11-21T10:10:30;5.57;;;4.23;;
15258;SDS011;34462;51.368;12.364;2023-11-21T10:13:01;7.33;;;4.97;;
15258;SDS011;34462;51.368;12.364;2023-11-21T10:15:33;5.07;;;4.50;;
15258;SDS011;34462;51.368;12.364;2023-11-21T10:18:02;5.90;;;4.93;;
15258;SDS011;34462;51.368;12.364;2023-11-21T10:20:33;5.20;;;4.50;;
15258;SDS011;34462;51.368;12.364;2023-11-21T10:23:04;6.57;;;4.70;;
15258;SDS011;34462;51.368;12.364;2023-11-21T10:25:34;6.33;;;4.97;;
15258;SDS011;34462;51.368;12.364;2023-11-21T10:28:04;5.13;;;4.63;;
15258;SDS011;34462;51.368;12.364;2023-11-21T10:30:33;6.70;;;4.77;;
15258;SDS011;34462;51.368;12.364;2023-11-21T10:33:04;5.03;;;4.30;;
15258;SDS011;34462;51.368;12.364;2023-11-21T10:35:42;5.00;;;3.90;;
15258;SDS011;34462;51.368;12.364;2023-11-21T10:38:15;5.50;;;4.73;;
15258;SDS011;34462;51.368;12.364;2023-11-21T10:40:43;4.50;;;4.10;;
15258;SDS011;34462;51.368;12.364;2023-11-21T10:43:14;5.77;;;4.63;;
15258;SDS011;34462;51.368;12.364;2023-11-21T10:45:43;5.40;;;4.30;;
15258;SDS011;34462;51.368;12.364;2023-11-21T10:48:13;5.77;;;4.60;;
15258;SDS011;34462;51.368;12.364;2023-11-21T10:50:43;6.13;;;4.40;;
15258;SDS011;34462;51.368;12.364;2023-11-21T10:53:13;5.77;;;4.47;;
15258;SDS011;34462;51.368;12.364;2023-11-21T10:55:42;6.53;;;4.80;;
15258;SDS011;34462;51.368;12.364;2023-11-21T10:58:11;6.20;;;4.83;;
15258;SDS011;34462;51.368;12.364;2023-11-21T11:00:44;6.73;;;4.73;;
15258;SDS011;34462;51.368;12.364;2023-11-21T11:03:12;7.17;;;5.63;;
15258;SDS011;34462;51.368;12.364;2023-11-21T11:05:43;8.53;;;5.90;;
15258;SDS011;34462;51.368;12.364;2023-11-21T11:08:19;7.27;;;5.60;;
15258;SDS011;34462;51.368;12.364;2023-11-21T11:10:54;8.20;;;5.87;;
15258;SDS011;34462;51.368;12.364;2023-11-21T11:13:26;7.23;;;5.87;;
15258;SDS011;34462;51.368;12.364;2023-11-21T11:15:56;7.23;;;5.67;;
15258;SDS011;34462;51.368;12.364;2023-11-21T11:18:28;8.50;;;5.70;;
15258;SDS011;34462;51.368;12.364;2023-11-21T11:20:58;7.90;;;6.37;;
15258;SDS011;34462;51.368;12.364;2023-11-21T11:23:45;9.03;;;6.60;;
15258;SDS011;34462;51.368;12.364;2023-11-21T11:26:37;8.07;;;6.27;;
15258;SDS011;34462;51.368;12.364;2023-11-21T11:29:21;8.63;;;5.80;;
15258;SDS011;34462;51.368;12.364;2023-11-21T11:32:04;10.60;;;6.60;;
15258;SDS011;34462;51.368;12.364;2023-11-21T11:34:45;9.37;;;6.47;;
15258;SDS011;34462;51.368;12.364;2023-11-21T11:37:26;8.83;;;6.77;;
15258;SDS011;34462;51.368;12.364;2023-11-21T11:39:56;9.80;;;6.80;;
15258;SDS011;34462;51.368;12.364;2023-11-21T11:42:24;9.93;;;6.90;;
15258;SDS011;34462;51.368;12.364;2023-11-21T11:44:58;12.53;;;8.80;;
15258;SDS011;34462;51.368;12.364;2023-11-21T11:47:26;11.97;;;8.80;;
15258;SDS011;34462;51.368;12.364;2023-11-21T11:50:02;13.30;;;9.37;;
15258;SDS011;34462;51.368;12.364;2023-11-21T11:52:40;13.17;;;9.10;;
15258;SDS011;34462;51.368;12.364;2023-11-21T11:55:10;11.53;;;8.30;;
15258;SDS011;34462;51.368;12.364;2023-11-21T11:57:41;10.77;;;7.80;;
15258;SDS011;34462;51.368;12.364;2023-11-21T12:00:16;10.43;;;7.67;;
15258;SDS011;34462;51.368;12.364;2023-11-21T12:02:47;9.63;;;7.00;;
15258;SDS011;34462;51.368;12.364;2023-11-21T12:05:18;9.20;;;6.57;;
15258;SDS011;34462;51.368;12.364;2023-11-21T12:07:49;9.30;;;6.23;;
15258;SDS011;34462;51.368;12.364;2023-11-21T12:10:21;9.77;;;6.70;;
15258;SDS011;34462;51.368;12.364;2023-11-21T12:12:52;7.43;;;5.40;;
15258;SDS011;34462;51.368;12.364;2023-11-21T12:15:26;9.00;;;5.83;;
15258;SDS011;34462;51.368;12.364;2023-11-21T12:17:55;7.43;;;5.63;;
15258;SDS011;34462;51.368;12.364;2023-11-21T12:20:25;7.33;;;5.40;;
15258;SDS011;34462;51.368;12.364;2023-11-21T12:22:55;10.10;;;5.63;;
15258;SDS011;34462;51.368;12.364;2023-11-21T12:25:27;8.00;;;6.37;;
15258;SDS011;34462;51.368;12.364;2023-11-21T12:27:58;8.90;;;7.27;;
15258;SDS011;34462;51.368;12.364;2023-11-21T12:30:33;9.37;;;7.30;;
15258;SDS011;34462;51.368;12.364;2023-11-21T12:33:04;7.73;;;5.97;;
15258;SDS011;34462;51.368;12.364;2023-11-21T12:35:35;7.30;;;6.13;;
15258;SDS011;34462;51.368;12.364;2023-11-21T12:38:05;7.63;;;5.90;;
15258;SDS011;34462;51.368;12.364;2023-11-21T12:40:35;8.17;;;6.70;;
15258;SDS011;34462;51.368;12.364;2023-11-21T12:43:04;11.73;;;9.10;;
15258;SDS011;34462;51.368;12.364;2023-11-21T12:45:37;11.30;;;8.67;;
15258;SDS011;34462;51.368;12.364;2023-11-21T12:48:06;12.33;;;9.47;;
15258;SDS011;34462;51.368;12.364;2023-11-21T12:50:35;13.67;;;9.03;;
15258;SDS011;34462;51.368;12.364;2023-11-21T12:53:05;12.80;;;8.80;;
15258;SDS011;34462;51.368;12.364;2023-11-21T12:55:36;11.80;;;8.53;;
15258;SDS011;34462;51.368;12.364;2023-11-21T12:58:06;12.50;;;9.03;;
15258;SDS011;34462;51.368;12.364;2023-11-21T13:00:39;12.83;;;8.60;;
15258;SDS011;34462;51.368;12.364;2023-11-21T13:03:12;13.47;;;9.23;;
15258;SDS011;34462;51.368;12.364;2023-11-21T13:05:45;13.00;;;9.13;;
15258;SDS011;34462;51.368;12.364;2023-11-21T13:08:18;12.03;;;8.77;;
15258;SDS011;34462;51.368;12.364;2023-11-21T13:10:49;11.83;;;8.47;;
15258;SDS011;34462;51.368;12.364;2023-11-21T13:13:20;10.90;;;8.10;;
15258;SDS011;34462;51.368;12.364;2023-11-21T13:15:52;12.20;;;8.33;;
15258;SDS011;34462;51.368;12.364;2023-11-21T13:18:23;10.17;;;7.67;;
15258;SDS011;34462;51.368;12.364;2023-11-21T13:20:53;11.33;;;7.73;;
15258;SDS011;34462;51.368;12.364;2023-11-21T13:23:23;10.23;;;7.87;;
15258;SDS011;34462;51.368;12.364;2023-11-21T13:25:51;10.17;;;7.57;;
15258;SDS011;34462;51.368;12.364;2023-11-21T13:28:30;16.33;;;9.77;;
15258;SDS011;34462;51.368;12.364;2023-11-21T13:31:02;10.50;;;8.67;;
15258;SDS011;34462;51.368;12.364;2023-11-21T13:33:47;10.37;;;7.60;;
15258;SDS011;34462;51.368;12.364;2023-11-21T13:36:22;8.70;;;6.83;;
15258;SDS011;34462;51.368;12.364;2023-11-21T13:38:53;10.17;;;7.83;;
15258;SDS011;34462;51.368;12.364;2023-11-21T13:41:25;12.03;;;10.13;;
15258;SDS011;34462;51.368;12.364;2023-11-21T13:43:57;10.43;;;7.47;;
15258;SDS011;34462;51.368;12.364;2023-11-21T13:46:36;8.97;;;7.10;;
15258;SDS011;34462;51.368;12.364;2023-11-21T13:49:05;9.73;;;6.80;;
15258;SDS011;34462;51.368;12.364;2023-11-21T13:51:36;9.53;;;6.97;;
15258;SDS011;34462;51.368;12.364;2023-11-21T13:54:09;9.00;;;6.87;;
15258;SDS011;34462;51.368;12.364;2023-11-21T13:56:37;8.87;;;7.00;;
15258;SDS011;34462;51.368;12.364;2023-11-21T13:59:07;8.00;;;6.60;;
15258;SDS011;34462;51.368;12.364;2023-11-21T14:01:49;7.23;;;5.80;;
15258;SDS011;34462;51.368;12.364;2023-11-21T14:04:23;6.80;;;5.33;;
15258;SDS011;34462;51.368;12.364;2023-11-21T14:07:21;6.67;;;5.67;;
15258;SDS011;34462;51.368;12.364;2023-11-21T14:09:59;6.67;;;5.13;;
15258;SDS011;34462;51.368;12.364;2023-11-21T14:12:27;5.20;;;4.10;;
15258;SDS011;34462;51.368;12.364;2023-11-21T14:15:04;5.27;;;4.50;;
15258;SDS011;34462;51.368;12.364;2023-11-21T14:17:39;6.37;;;5.37;;
15258;SDS011;34462;51.368;12.364;2023-11-21T14:20:11;4.87;;;4.23;;
15258;SDS011;34462;51.368;12.364;2023-11-21T14:22:43;6.90;;;4.63;;
15258;SDS011;34462;51.368;12.364;2023-11-21T14:25:11;5.47;;;4.37;;
15258;SDS011;34462;51.368;12.364;2023-11-21T14:27:40;5.73;;;4.70;;
15258;SDS011;34462;51.368;12.364;2023-11-21T14:30:09;6.57;;;4.60;;
15258;SDS011;34462;51.368;12.364;2023-11-21T14:32:41;4.97;;;4.40;;
15258;SDS011;34462;51.368;12.364;2023-11-21T14:35:09;5.63;;;4.27;;
15258;SDS011;34462;51.368;12.364;2023-11-21T14:37:37;4.53;;;3.93;;
15258;SDS011;34462;51.368;12.364;2023-11-21T14:40:06;5.77;;;4.00;;
15258;SDS011;34462;51.368;12.364;2023-11-21T14:42:38;4.73;;;3.90;;
15258;SDS011;34462;51.368;12.364;2023-11-21T14:45:07;4.97;;;3.80;;
15258;SDS011;34462;51.368;12.364;2023-11-21T14:47:43;4.50;;;3.57;;